グランド・テール島 の空港の天気 - METARとTAF

ポワンタピートル国際空港 ( TFFR / PTP ) - グアドループ グランド・テール島
飛行場実況気象(Metar)
観測時間07/12 17:00 AST (07/12 21:00 UTC)
風向・風速東 6m/s
視程10km以上
天気現象
少しの雲 雲底高度 820m
気温30℃
湿度70%
気圧1014hPa
METARTFFR 122100Z AUTO 08012KT 030V110 9999 FEW027 30/24 Q1014 NOSIG
過去の天気等 Google飛行場航空写真 Wunderground天気予報

過去48時間のMETAR

飛行場予報(TAF)
発表時間: 7/12 13:00 AST (7/12 17:00 UTC)
予報対象時間: 12日14時 AST ~ 13日14時 AST
風向・風速東 6m/s
視程10km以上
全天の4割程度の雲 雲底高度 820m
全天の4割程度の雲 雲底高度 1220m
13日5時 AST ~ 13日8時 AST に 確率 30% で一時的に
視程4000m
天気現象しゅう雨
全天の4割程度の塔状積雲 雲底高度 550m
TAF TFFR 121700Z 1218/1318 09012KT 9999 SCT027 SCT040
PROB30 TEMPO 1309/1312 4000 SHRA SCT018TCU